To NAV CANADA Home Page Login to a new session Search on AWWS site Feedback and Comments Disclaimer Vers la page française équivalente Tips FAQ What's new on the site To the Forecasts and Observations / NOTAM section To "File a Flight Plan" website Publications and other links Update of the User's profile FIC Telephone Numbers My Weather Data Folder Route Weather Data Regional Weather Data Local Weather Data To the Forecasts and Observations / NOTAM section
Request Generated 05/25/2016 at 12:54:10 UTC . Weather information available at that time is displayed.

METAR/TAF

RANKIN INLET/NU    

METAR CYRT 251200Z 36007KT 15SM OVC025 M05/M07 A3015 RMK SC8 SLP216=
METAR CYRT 251100Z 34008KT 15SM OVC025 M05/M07 A3015 RMK SC8 SLP213=
METAR CYRT 251000Z 32009KT 15SM OVC025 M05/M08 A3013 RMK SC8 SLP209=

TAF CYRT 251138Z 2512/2524 32012KT P6SM BKN025 TEMPO 2512/2521 BKN020
RMK NXT FCST BY 251800Z=
Your time UTC time
Weather data provided by Environment Canada and NAV CANADA